CheckWX is a tool to help pilots better visualize weather data.  It is not intended as a substitute for an official pre-flight weather briefing.

02:38:30 UTC

UAKD METAR
Zhezkazgan
Zhezkazgan, Kazakhstan
Current

39 mins ago

UAKD 040200Z 31004MPS 9999 FEW030 14/13 Q1014 R04/1///63 NOSIG RMK QFE727/0969
Observed
Jul-4 @ 02:00 UTC
Wind
  • 310° at 8 KTS
Visibility
10,000+ meters
Flight Rules
VFR
Cloud Levels
  • Few at 3,000' AGL
Temperature
14°C / 57°F
Dewpoint
13°C / 55°F
Humidity
94%
Altimeter
29.94" Hg
Pressure
1013.92 hPa
Previous

7 hours ago

UAKD 031930Z 33003MPS 9999 SCT040CB BKN100 13/11 Q1014 R04/1///63 NOSIG RMK QFE727/0969
Observed
Jul-3 @ 19:30 UTC
Wind
  • 330° at 6 KTS
Visibility
10,000+ meters
Flight Rules
VFR
Cloud Levels
  • Scattered at 4,000' AGL
  • Broken at 10,000' AGL
Temperature
13°C / 55°F
Dewpoint
11°C / 52°F
Humidity
88%
Altimeter
29.94" Hg
Pressure
1013.92 hPa
Previous

8 hours ago

UAKD 031900Z 32004MPS 9999 SCT040CB BKN100 13/11 Q1014 R04/0///65 NOSIG RMK QFE727/0969
Observed
Jul-3 @ 19:00 UTC
Wind
  • 320° at 8 KTS
Visibility
10,000+ meters
Flight Rules
VFR
Cloud Levels
  • Scattered at 4,000' AGL
  • Broken at 10,000' AGL
Temperature
13°C / 55°F
Dewpoint
11°C / 52°F
Humidity
88%
Altimeter
29.94" Hg
Pressure
1013.92 hPa